Time;durP1;ratioP1;P1;durP2;ratioP2;P2;SDS_P1;SDS_P2;PMS_P1;PMS_P2;Temp;Humidity;BMP_temperature;BMP_pressure;BME280_temperature;BME280_humidity;BME280_pressure;Samples;Min_cycle;Max_cycle;Signal;HPM_P1;HPM_P2
2021/06/08 00:00:35;;;;;;;23.20;19.38;;;14.00;99.90;;;;;;5052592;28;20053;-57
2021/06/08 00:03:02;;;;;;;19.55;16.77;;;14.10;99.90;;;;;;5052561;28;20045;-58
2021/06/08 00:05:29;;;;;;;22.33;17.80;;;14.00;99.90;;;;;;5052193;28;20135;-57
2021/06/08 00:07:55;;;;;;;22.42;18.63;;;13.70;99.90;;;;;;5052574;28;20041;-57
2021/06/08 00:10:22;;;;;;;25.45;19.50;;;13.70;99.90;;;;;;5052486;28;20423;-58
2021/06/08 00:12:47;;;;;;;27.52;19.35;;;13.60;99.90;;;;;;5052413;28;20083;-57
2021/06/08 00:15:15;;;;;;;20.70;18.35;;;13.60;99.90;;;;;;5052372;28;20041;-57
2021/06/08 00:17:41;;;;;;;24.58;20.33;;;13.70;99.90;;;;;;5052358;28;20049;-57
2021/06/08 00:20:08;;;;;;;25.83;20.10;;;13.70;99.90;;;;;;5052255;28;20052;-57
2021/06/08 00:22:36;;;;;;;25.17;20.20;;;13.60;99.90;;;;;;5052218;28;20044;-58
2021/06/08 00:25:04;;;;;;;25.98;20.55;;;13.60;99.90;;;;;;5052298;28;20130;-57
2021/06/08 00:27:30;;;;;;;26.10;20.52;;;13.50;99.90;;;;;;5052099;28;20495;-57
2021/06/08 00:29:56;;;;;;;25.52;19.90;;;13.60;99.90;;;;;;5052167;28;20124;-57
2021/06/08 00:32:22;;;;;;;23.92;19.20;;;13.60;99.90;;;;;;5063778;28;20051;-58
2021/06/08 00:34:48;;;;;;;25.10;19.27;;;13.60;99.90;;;;;;5114188;28;20036;-57
2021/06/08 00:37:14;;;;;;;22.95;17.90;;;13.60;99.90;;;;;;5115099;28;20047;-58
2021/06/08 00:39:40;;;;;;;23.20;18.95;;;13.50;99.90;;;;;;5114778;28;20532;-57
2021/06/08 00:42:07;;;;;;;21.55;18.38;;;13.40;99.90;;;;;;5114933;28;20048;-57
2021/06/08 00:44:33;;;;;;;21.85;17.67;;;13.40;99.90;;;;;;5114713;28;20392;-57
2021/06/08 00:46:59;;;;;;;25.02;19.00;;;13.50;99.90;;;;;;5113526;28;20048;-58
2021/06/08 00:49:25;;;;;;;22.33;19.65;;;13.50;99.90;;;;;;5114725;28;20430;-57
2021/06/08 00:51:52;;;;;;;23.05;19.27;;;13.40;99.90;;;;;;5114712;28;20093;-57
2021/06/08 00:54:18;;;;;;;25.27;20.60;;;13.40;99.90;;;;;;5114475;28;20044;-58
2021/06/08 00:56:46;;;;;;;23.25;19.38;;;13.40;99.90;;;;;;5114628;28;20070;-57
2021/06/08 00:59:12;;;;;;;22.98;19.45;;;13.30;99.90;;;;;;5114375;28;20485;-58
2021/06/08 01:01:40;;;;;;;25.10;21.42;;;13.30;99.90;;;;;;5114475;28;20040;-57
2021/06/08 01:04:08;;;;;;;27.48;21.98;;;13.30;99.90;;;;;;5114204;28;20043;-58
2021/06/08 01:06:36;;;;;;;26.70;21.92;;;13.20;99.90;;;;;;5114357;28;20048;-58
2021/06/08 01:09:05;;;;;;;32.22;23.65;;;13.20;99.90;;;;;;5113994;28;20462;-57
2021/06/08 01:11:31;;;;;;;;;;;13.10;99.90;;;;;;5114729;28;20473;-57
2021/06/08 01:13:57;;;;;;;30.00;24.05;;;13.10;99.90;;;;;;5114045;28;19916;-57
2021/06/08 01:16:24;;;;;;;33.20;22.55;;;13.30;99.90;;;;;;5114121;28;20055;-57
2021/06/08 01:18:50;;;;;;;29.95;23.75;;;13.40;99.90;;;;;;5114070;28;20088;-57
2021/06/08 01:21:16;;;;;;;30.35;22.88;;;13.40;99.90;;;;;;5113953;28;20043;-57
2021/06/08 01:23:45;;;;;;;26.02;21.73;;;13.40;99.90;;;;;;5114134;28;20100;-57
2021/06/08 01:26:11;;;;;;;26.63;21.35;;;13.40;99.90;;;;;;5113695;28;20043;-57
2021/06/08 01:28:39;;;;;;;29.00;24.08;;;13.40;99.90;;;;;;5114050;28;20050;-57
2021/06/08 01:31:12;;;;;;;29.65;22.98;;;13.40;99.90;;;;;;5113721;28;20485;-57
2021/06/08 01:33:41;;;;;;;30.70;23.20;;;13.30;99.90;;;;;;5113702;28;20047;-57
2021/06/08 01:36:08;;;;;;;30.35;24.10;;;13.30;99.90;;;;;;5113664;28;20377;-57
2021/06/08 01:38:38;;;;;;;33.72;25.42;;;13.30;99.90;;;;;;5113844;28;20048;-57
2021/06/08 01:41:05;;;;;;;34.17;24.83;;;13.30;99.90;;;;;;5113576;28;20040;-57
2021/06/08 01:43:31;;;;;;;30.38;24.08;;;13.40;99.90;;;;;;5113490;28;20036;-57
2021/06/08 01:45:57;;;;;;;34.15;25.45;;;13.40;99.90;;;;;;5113310;28;20046;-56
2021/06/08 01:48:23;;;;;;;36.03;26.88;;;13.40;99.90;;;;;;5113384;28;20048;-57
2021/06/08 01:50:50;;;;;;;35.65;27.35;;;13.40;99.90;;;;;;5113583;28;20048;-57
2021/06/08 01:53:34;;;;;;;40.00;27.70;;;13.50;99.90;;;;;;5113567;28;20043;-56
2021/06/08 01:56:07;;;;;;;43.47;30.60;;;13.50;99.90;;;;;;5113611;28;20392;-57
2021/06/08 01:58:49;;;;;;;42.83;30.17;;;13.50;99.90;;;;;;5112788;28;20069;-57
2021/06/08 02:01:23;;;;;;;45.72;32.97;;;13.40;99.90;;;;;;5113387;28;20040;-57
2021/06/08 02:03:52;;;;;;;51.30;35.90;;;13.40;99.90;;;;;;5113195;28;20043;-57
2021/06/08 02:06:33;;;;;;;54.58;35.80;;;13.40;99.90;;;;;;5113124;28;20071;-57
2021/06/08 02:09:18;;;;;;;57.15;37.42;;;13.40;99.90;;;;;;5113033;28;20035;-57
2021/06/08 02:11:56;;;;;;;59.75;38.05;;;13.30;99.90;;;;;;5113541;28;20139;-57
2021/06/08 02:14:38;;;;;;;61.75;40.13;;;13.30;99.90;;;;;;5113184;28;20040;-57
2021/06/08 02:17:23;;;;;;;65.35;39.22;;;13.40;99.90;;;;;;5113247;28;20039;-57
2021/06/08 02:19:51;;;;;;;63.53;40.88;;;13.30;99.90;;;;;;5094301;28;20486;-57
2021/06/08 02:22:22;;;;;;;71.18;41.75;;;13.30;99.90;;;;;;5113005;28;20039;-57
2021/06/08 02:24:49;;;;;;;63.58;39.17;;;13.30;99.90;;;;;;5113018;28;20048;-57
2021/06/08 02:27:17;;;;;;;58.72;38.75;;;13.40;99.90;;;;;;5112755;28;20056;-57
2021/06/08 02:29:48;;;;;;;53.22;36.17;;;13.30;99.90;;;;;;5112706;28;20130;-57
2021/06/08 02:32:16;;;;;;;44.65;30.60;;;13.30;99.90;;;;;;5112559;28;20545;-57
2021/06/08 02:34:43;;;;;;;46.75;32.35;;;13.20;99.90;;;;;;5112855;28;20043;-57
2021/06/08 02:37:18;;;;;;;43.20;30.50;;;13.30;99.90;;;;;;5112821;28;20119;-57
2021/06/08 02:39:46;;;;;;;37.70;28.92;;;13.20;99.90;;;;;;5112767;28;20065;-57
2021/06/08 02:42:17;;;;;;;43.65;28.63;;;13.30;99.90;;;;;;5112718;28;20160;-57
2021/06/08 02:44:45;;;;;;;42.90;30.50;;;13.20;99.90;;;;;;5112542;28;20051;-57
2021/06/08 02:47:21;;;;;;;43.92;29.15;;;13.20;99.90;;;;;;5095538;28;20537;-57
2021/06/08 02:49:48;;;;;;;33.43;25.33;;;13.20;99.90;;;;;;5112601;28;20404;-57
2021/06/08 02:52:17;;;;;;;31.88;23.25;;;13.20;99.90;;;;;;5112579;28;20101;-57
2021/06/08 02:54:44;;;;;;;27.58;21.00;;;13.30;99.90;;;;;;5112433;28;20074;-57
2021/06/08 02:57:11;;;;;;;24.65;19.77;;;13.30;99.90;;;;;;5112472;28;20443;-57
2021/06/08 02:59:40;;;;;;;23.40;18.88;;;13.30;99.90;;;;;;5112460;28;20044;-57
2021/06/08 03:02:13;;;;;;;22.92;18.58;;;13.30;99.90;;;;;;5112616;28;20044;-57
2021/06/08 03:04:48;;;;;;;19.20;16.48;;;13.30;99.90;;;;;;5112209;28;20051;-57
2021/06/08 03:07:15;;;;;;;21.50;17.60;;;13.30;99.90;;;;;;5112334;28;20082;-57
2021/06/08 03:09:54;;;;;;;17.98;15.70;;;13.40;99.90;;;;;;5112576;28;20039;-56
2021/06/08 03:12:25;;;;;;;21.52;17.00;;;13.30;99.90;;;;;;5116610;28;20109;-57
2021/06/08 03:14:52;;;;;;;25.63;18.90;;;13.40;99.90;;;;;;5116416;28;20114;-57
2021/06/08 03:17:22;;;;;;;23.63;18.73;;;13.40;99.90;;;;;;5116465;28;20047;-57
2021/06/08 03:19:58;;;;;;;22.10;18.92;;;13.40;99.90;;;;;;5116269;28;20036;-57
2021/06/08 03:22:27;;;;;;;19.90;16.65;;;13.60;99.90;;;;;;5116129;28;20100;-57
2021/06/08 03:24:56;;;;;;;19.67;15.75;;;13.50;99.90;;;;;;5116442;28;20933;-57
2021/06/08 03:27:23;;;;;;;17.27;15.30;;;13.50;99.90;;;;;;5116319;28;20062;-57
2021/06/08 03:29:51;;;;;;;24.55;16.60;;;13.50;99.90;;;;;;5116236;28;20048;-57
2021/06/08 03:32:19;;;;;;;18.07;15.17;;;13.40;99.90;;;;;;5116137;28;20405;-57
2021/06/08 03:34:46;;;;;;;19.85;15.27;;;13.50;99.90;;;;;;5116081;28;20289;-56
2021/06/08 03:37:16;;;;;;;18.53;15.90;;;13.40;99.90;;;;;;5116365;28;20054;-57
2021/06/08 03:39:43;;;;;;;17.92;14.75;;;13.40;99.90;;;;;;5115810;28;20301;-57
2021/06/08 03:42:10;;;;;;;17.58;14.38;;;13.40;99.90;;;;;;5115918;28;20043;-57
2021/06/08 03:44:37;;;;;;;15.25;12.98;;;13.40;99.90;;;;;;5115928;28;20531;-57
2021/06/08 03:47:03;;;;;;;16.55;14.48;;;13.40;99.90;;;;;;5115916;28;20067;-57
2021/06/08 03:49:37;;;;;;;17.67;13.60;;;13.40;99.90;;;;;;5115966;28;20389;-57
2021/06/08 03:52:03;;;;;;;19.80;16.15;;;13.40;99.90;;;;;;5115972;28;20047;-57
2021/06/08 03:54:29;;;;;;;20.15;16.95;;;13.50;99.90;;;;;;5115671;28;20059;-57
2021/06/08 03:56:57;;;;;;;21.55;16.58;;;13.50;99.90;;;;;;5107114;28;20046;-57
2021/06/08 03:59:26;;;;;;;23.60;18.23;;;13.50;99.90;;;;;;5115451;28;20075;-57
2021/06/08 04:01:53;;;;;;;24.23;18.90;;;13.50;99.90;;;;;;5115607;28;20040;-57
2021/06/08 04:04:20;;;;;;;24.13;18.20;;;13.50;99.90;;;;;;5115486;28;20051;-57
2021/06/08 04:06:46;;;;;;;25.75;19.58;;;13.50;99.90;;;;;;5115426;28;20036;-57
2021/06/08 04:09:13;;;;;;;22.85;18.50;;;13.50;99.90;;;;;;5115345;28;20429;-57
2021/06/08 04:11:41;;;;;;;25.65;19.58;;;13.60;99.90;;;;;;5115355;28;20036;-57
2021/06/08 04:14:09;;;;;;;24.65;19.80;;;13.70;99.90;;;;;;5115086;28;20077;-57
2021/06/08 04:16:36;;;;;;;23.75;19.95;;;13.80;99.90;;;;;;5115422;28;20067;-57
2021/06/08 04:19:07;;;;;;;26.85;19.73;;;13.80;99.90;;;;;;5115393;28;20489;-57
2021/06/08 04:21:33;;;;;;;25.25;20.90;;;13.80;99.90;;;;;;5115009;28;20134;-57
2021/06/08 04:24:01;;;;;;;24.55;20.55;;;13.80;99.90;;;;;;5115289;28;20127;-57
2021/06/08 04:26:28;;;;;;;26.17;20.52;;;13.70;99.90;;;;;;5115039;28;20050;-57
2021/06/08 04:28:55;;;;;;;21.90;18.10;;;13.80;99.90;;;;;;5115097;28;20074;-57
2021/06/08 04:31:41;;;;;;;24.67;18.70;;;13.70;99.90;;;;;;5115105;28;20048;-57
2021/06/08 04:34:08;;;;;;;23.83;18.58;;;13.80;99.90;;;;;;5115127;28;20044;-58
2021/06/08 04:36:33;;;;;;;23.77;17.33;;;13.80;99.90;;;;;;5114731;28;20032;-57
2021/06/08 04:39:00;;;;;;;26.45;18.38;;;13.80;99.90;;;;;;5114764;28;20400;-57
2021/06/08 04:41:26;;;;;;;22.23;17.63;;;13.70;99.90;;;;;;5114605;28;20044;-57
2021/06/08 04:43:52;;;;;;;21.75;17.98;;;13.70;99.90;;;;;;5114881;28;20079;-58
2021/06/08 04:46:26;;;;;;;23.65;18.10;;;13.60;99.90;;;;;;5114950;28;20039;-57
2021/06/08 04:49:04;;;;;;;19.10;15.75;;;13.60;99.90;;;;;;5114729;28;20035;-57
2021/06/08 04:51:34;;;;;;;18.02;15.05;;;13.60;99.90;;;;;;5114646;28;20051;-57
2021/06/08 04:54:11;;;;;;;21.00;14.82;;;13.50;99.90;;;;;;5114544;28;20049;-58
2021/06/08 04:56:52;;;;;;;20.23;16.48;;;13.50;99.90;;;;;;5114737;28;20043;-57
2021/06/08 04:59:36;;;;;;;22.20;17.85;;;13.50;99.90;;;;;;5114376;28;20484;-57
2021/06/08 05:02:07;;;;;;;22.48;16.88;;;13.50;99.90;;;;;;5114404;28;20093;-57
2021/06/08 05:04:37;;;;;;;22.83;17.33;;;13.50;99.90;;;;;;5114462;28;20055;-57
2021/06/08 05:07:05;;;;;;;23.85;17.65;;;13.40;99.90;;;;;;5114205;28;20517;-57
2021/06/08 05:09:35;;;;;;;25.25;17.25;;;13.50;99.90;;;;;;5114489;28;20048;-57
2021/06/08 05:12:05;;;;;;;22.02;17.45;;;13.50;99.90;;;;;;5114637;28;20035;-57
2021/06/08 05:14:33;;;;;;;24.00;18.30;;;13.60;99.90;;;;;;5114264;28;20481;-57
2021/06/08 05:16:59;;;;;;;27.60;20.00;;;13.60;99.90;;;;;;5114281;28;20044;-57
2021/06/08 05:19:32;;;;;;;31.23;22.77;;;13.80;99.90;;;;;;5114165;28;20039;-57
2021/06/08 05:22:22;;;;;;;29.60;22.83;;;13.80;99.90;;;;;;5099197;28;20079;-57
2021/06/08 05:24:55;;;;;;;30.85;24.48;;;13.80;99.90;;;;;;5105370;28;20047;-57
2021/06/08 05:27:41;;;;;;;32.08;24.67;;;13.90;99.90;;;;;;5099101;28;20036;-58
2021/06/08 05:30:09;;;;;;;35.97;26.90;;;13.90;99.90;;;;;;5113825;28;20074;-57
2021/06/08 05:32:55;;;;;;;39.30;27.65;;;13.80;99.90;;;;;;5098201;28;20113;-57
2021/06/08 05:35:26;;;;;;;38.08;27.48;;;13.70;99.90;;;;;;5113732;28;20047;-56
2021/06/08 05:37:52;;;;;;;46.38;30.55;;;13.90;99.90;;;;;;5113837;28;20038;-57
2021/06/08 05:40:19;;;;;;;42.78;32.55;;;13.90;99.90;;;;;;5113686;28;20043;-57
2021/06/08 05:42:48;;;;;;;45.38;32.30;;;13.90;99.90;;;;;;5113482;28;20557;-57
2021/06/08 05:45:14;;;;;;;48.67;33.30;;;13.90;99.90;;;;;;5113942;28;20142;-57
2021/06/08 05:47:45;;;;;;;47.17;32.97;;;13.90;99.90;;;;;;5113529;28;20419;-57
2021/06/08 05:50:12;;;;;;;49.22;33.22;;;13.90;99.90;;;;;;5113351;28;20089;-57
2021/06/08 05:52:39;;;;;;;42.67;30.98;;;13.90;99.90;;;;;;5113532;28;20059;-57
2021/06/08 05:55:10;;;;;;;44.55;32.33;;;13.90;99.90;;;;;;5113488;28;20093;-57
2021/06/08 05:57:56;;;;;;;42.90;31.10;;;13.90;99.90;;;;;;5098285;28;20085;-57
2021/06/08 06:00:23;;;;;;;41.35;30.13;;;14.00;99.90;;;;;;5113260;28;20466;-57
2021/06/08 06:02:52;;;;;;;42.67;31.27;;;13.90;99.90;;;;;;5113390;28;20070;-57
2021/06/08 06:05:40;;;;;;;48.88;34.80;;;14.00;99.90;;;;;;5097710;28;20066;-57
2021/06/08 06:08:06;;;;;;;50.47;35.28;;;14.00;99.90;;;;;;5113134;28;20043;-57
2021/06/08 06:10:32;;;;;;;50.70;34.53;;;14.00;99.90;;;;;;5112906;28;20043;-57
2021/06/08 06:13:01;;;;;;;50.35;35.15;;;14.10;99.90;;;;;;5112814;28;20044;-57
2021/06/08 06:15:31;;;;;;;53.13;35.42;;;14.00;99.90;;;;;;5112755;28;20043;-57
2021/06/08 06:17:59;;;;;;;49.08;35.22;;;14.10;99.90;;;;;;5113102;28;20070;-57
2021/06/08 06:20:46;;;;;;;47.47;32.85;;;14.20;99.90;;;;;;5097541;28;20488;-57
2021/06/08 06:23:19;;;;;;;44.80;32.97;;;14.10;99.90;;;;;;5112815;28;20040;-57
2021/06/08 06:25:57;;;;;;;44.88;31.73;;;14.20;99.90;;;;;;5113039;28;20039;-56
2021/06/08 06:28:43;;;;;;;44.38;31.85;;;14.20;99.90;;;;;;5098025;28;20051;-57
2021/06/08 06:31:30;;;;;;;40.38;31.13;;;14.30;99.90;;;;;;5083623;28;20054;-57
2021/06/08 06:34:14;;;;;;;38.33;29.23;;;14.40;99.90;;;;;;5113009;28;20056;-57
2021/06/08 06:37:02;;;;;;;37.72;27.83;;;14.40;99.90;;;;;;5097682;28;20054;-57
2021/06/08 06:39:31;;;;;;;38.63;28.95;;;14.40;99.90;;;;;;5112886;28;20051;-57
2021/06/08 06:42:01;;;;;;;43.25;30.52;;;14.30;99.90;;;;;;5112745;28;20053;-56
2021/06/08 06:44:31;;;;;;;37.28;27.63;;;14.40;99.90;;;;;;5112343;28;20108;-57
2021/06/08 06:46:57;;;;;;;40.08;28.15;;;14.50;99.90;;;;;;5104202;28;20040;-57
2021/06/08 06:49:24;;;;;;;42.08;29.85;;;14.70;99.90;;;;;;5112483;28;20047;-57
2021/06/08 06:51:54;;;;;;;46.60;32.35;;;14.70;99.90;;;;;;5112428;28;20048;-57
2021/06/08 06:54:24;;;;;;;40.47;30.77;;;14.80;99.90;;;;;;5112170;28;20043;-57
2021/06/08 06:56:51;;;;;;;;;;;14.90;99.90;;;;;;5112805;28;20051;-57
2021/06/08 06:59:18;;;;;;;37.35;28.33;;;15.00;99.90;;;;;;5112372;28;19916;-57
2021/06/08 07:01:47;;;;;;;34.78;27.02;;;15.00;99.90;;;;;;5112179;28;20194;-57
2021/06/08 07:04:17;;;;;;;41.83;30.15;;;15.40;99.90;;;;;;5094000;28;20047;-57
2021/06/08 07:06:45;;;;;;;42.40;31.38;;;15.80;99.90;;;;;;5093628;28;20477;-57
2021/06/08 07:09:11;;;;;;;37.80;29.35;;;16.30;99.90;;;;;;5112150;28;20056;-58
2021/06/08 07:11:38;;;;;;;34.13;26.65;;;16.50;99.90;;;;;;5112452;28;20039;-57
2021/06/08 07:14:05;;;;;;;39.00;28.30;;;16.50;99.90;;;;;;5112364;28;20039;-57
2021/06/08 07:16:32;;;;;;;34.13;28.90;;;16.50;99.90;;;;;;5112313;28;20069;-57
2021/06/08 07:18:58;;;;;;;36.78;29.10;;;16.80;99.90;;;;;;5112060;28;20032;-57
2021/06/08 07:21:24;;;;;;;34.30;26.42;;;17.00;99.90;;;;;;5094041;28;20040;-57
2021/06/08 07:23:55;;;;;;;30.48;24.55;;;17.50;99.90;;;;;;5112204;28;20044;-57
2021/06/08 07:26:25;;;;;;;31.58;25.77;;;17.90;99.90;;;;;;5112547;28;20044;-57
2021/06/08 07:29:12;;;;;;;28.00;23.05;;;18.00;99.90;;;;;;5112129;28;20477;-57
2021/06/08 07:31:56;;;;;;;33.38;26.98;;;18.50;99.90;;;;;;5112081;28;20145;-57
2021/06/08 07:34:35;;;;;;;44.63;27.13;;;18.60;99.90;;;;;;5111932;28;20754;-57
2021/06/08 07:37:03;;;;;;;33.45;25.33;;;18.70;99.90;;;;;;5112108;28;20078;-57
2021/06/08 07:39:52;;;;;;;31.67;23.65;;;19.00;99.90;;;;;;5111603;28;20174;-58
2021/06/08 07:42:47;;;;;;;31.38;24.55;;;19.20;99.90;;;;;;5094319;28;20052;-57
2021/06/08 07:45:33;;;;;;;30.55;24.35;;;19.60;99.90;;;;;;5102240;28;20039;-58
2021/06/08 07:48:17;;;;;;;29.02;23.75;;;19.60;99.90;;;;;;5100246;28;20108;-58
2021/06/08 07:50:54;;;;;;;28.20;23.25;;;19.90;99.90;;;;;;5108376;28;20054;-58
2021/06/08 07:53:22;;;;;;;32.75;24.50;;;20.00;99.90;;;;;;5105938;28;20377;-58
2021/06/08 07:55:49;;;;;;;28.98;23.05;;;20.30;99.90;;;;;;5100976;28;20036;-58
2021/06/08 07:58:25;;;;;;;29.13;22.27;;;20.30;99.90;;;;;;5109992;28;20048;-57
2021/06/08 08:00:53;;;;;;;26.05;21.73;;;20.60;99.90;;;;;;5111705;28;20397;-58
2021/06/08 08:03:40;;;;;;;27.30;22.60;;;20.70;99.90;;;;;;5090179;28;20040;-58
2021/06/08 08:06:08;;;;;;;29.67;22.73;;;21.20;99.90;;;;;;5103846;28;20512;-58
2021/06/08 08:08:50;;;;;;;26.80;23.00;;;21.10;99.90;;;;;;5102075;28;20040;-58
2021/06/08 08:11:28;;;;;;;26.92;22.15;;;21.40;99.90;;;;;;5094762;28;20135;-58
2021/06/08 08:14:12;;;;;;;27.85;22.42;;;21.50;99.90;;;;;;5096830;28;20043;-58
2021/06/08 08:17:00;;;;;;;28.17;22.98;;;21.60;99.90;;;;;;5090609;28;20043;-59
2021/06/08 08:19:46;;;;;;;29.38;23.20;;;22.10;99.90;;;;;;5087457;28;20036;-58
2021/06/08 08:22:32;;;;;;;33.30;23.63;;;22.20;99.90;;;;;;5089124;28;20138;-58
2021/06/08 08:25:18;;;;;;;28.75;23.33;;;21.70;99.90;;;;;;5089897;28;20063;-59
2021/06/08 08:28:05;;;;;;;27.10;22.95;;;21.70;99.90;;;;;;5086419;28;20043;-59
2021/06/08 08:30:42;;;;;;;28.95;23.40;;;21.60;99.90;;;;;;5100843;28;20477;-58
2021/06/08 08:33:24;;;;;;;31.50;22.70;;;21.40;99.90;;;;;;5103393;28;20397;-58
2021/06/08 08:35:51;;;;;;;29.23;23.00;;;21.80;99.90;;;;;;5104009;28;20052;-58
2021/06/08 08:38:17;;;;;;;27.25;22.33;;;21.90;99.90;;;;;;5105245;28;20047;-59
2021/06/08 08:40:49;;;;;;;24.88;21.55;;;21.90;99.90;;;;;;5104264;28;20412;-58
2021/06/08 08:43:16;;;;;;;29.08;21.92;;;22.30;99.90;;;;;;5103355;28;20052;-59
2021/06/08 08:45:49;;;;;;;26.13;21.02;;;22.00;99.90;;;;;;5106076;28;20428;-58
2021/06/08 08:48:15;;;;;;;25.95;21.08;;;22.00;99.90;;;;;;5103176;28;20564;-59
2021/06/08 08:50:53;;;;;;;31.15;21.10;;;22.40;99.90;;;;;;5103600;28;20043;-59
2021/06/08 08:53:37;;;;;;;25.17;20.38;;;22.40;99.90;;;;;;5104039;28;20043;-58
2021/06/08 08:56:04;;;;;;;26.60;20.50;;;22.60;99.90;;;;;;5100981;28;20496;-59
2021/06/08 08:58:40;;;;;;;24.33;20.45;;;22.30;99.90;;;;;;5106079;28;20039;-59
2021/06/08 09:01:07;;;;;;;27.17;19.70;;;22.50;99.90;;;;;;5104623;28;20036;-59
2021/06/08 09:03:33;;;;;;;22.10;19.27;;;22.90;99.90;;;;;;5087078;28;20055;-59
2021/06/08 09:06:02;;;;;;;24.08;19.52;;;23.20;99.90;;;;;;5111604;28;20105;-60
2021/06/08 09:08:28;;;;;;;25.17;20.30;;;23.10;99.90;;;;;;5103938;28;20043;-59
2021/06/08 09:10:55;;;;;;;25.50;20.40;;;23.00;99.90;;;;;;5102903;28;20040;-60
2021/06/08 09:13:22;;;;;;;24.75;20.15;;;23.20;99.90;;;;;;5103711;28;20111;-59
2021/06/08 09:15:49;;;;;;;25.60;18.98;;;22.90;99.90;;;;;;5104463;28;20058;-59
2021/06/08 09:18:16;;;;;;;23.58;19.17;;;23.60;99.90;;;;;;5105761;28;20043;-59
2021/06/08 09:20:42;;;;;;;23.83;20.27;;;23.80;99.90;;;;;;5107818;28;20032;-59
2021/06/08 09:23:09;;;;;;;23.70;19.08;;;23.90;99.90;;;;;;5114188;28;20047;-59
2021/06/08 09:25:38;;;;;;;22.35;18.10;;;23.90;99.90;;;;;;5107914;28;20184;-60
2021/06/08 09:28:19;;;;;;;23.88;18.90;;;24.20;99.90;;;;;;5114067;28;20054;-59
2021/06/08 09:30:45;;;;;;;23.85;19.50;;;24.50;99.90;;;;;;5095142;28;20048;-59
2021/06/08 09:33:24;;;;;;;22.58;18.58;;;24.70;99.90;;;;;;5093192;28;20409;-59
2021/06/08 09:36:15;;;;;;;20.20;16.83;;;24.50;99.40;;;;;;5096038;28;20040;-59
2021/06/08 09:38:50;;;;;;;22.48;17.35;;;24.70;99.90;;;;;;5029101;28;20057;-60
2021/06/08 09:41:17;;;;;;;26.35;16.73;;;24.90;99.90;;;;;;5018739;28;20051;-60
2021/06/08 09:44:02;;;;;;;24.48;19.00;;;25.20;99.90;;;;;;5010582;28;20042;-60
2021/06/08 09:46:28;;;;;;;21.30;15.55;;;25.00;98.70;;;;;;5010383;28;20092;-60
2021/06/08 09:49:02;;;;;;;17.35;15.50;;;25.30;99.90;;;;;;5010784;28;20042;-60
2021/06/08 09:51:50;;;;;;;18.17;15.45;;;25.90;99.40;;;;;;5010855;28;20125;-60
2021/06/08 09:54:26;;;;;;;19.65;15.57;;;26.30;98.50;;;;;;5011019;28;20041;-59
2021/06/08 09:57:13;;;;;;;17.92;14.68;;;27.20;96.60;;;;;;5010771;28;20084;-59
2021/06/08 09:59:40;;;;;;;17.83;14.40;;;28.10;96.20;;;;;;5010636;28;20046;-60
2021/06/08 10:02:23;;;;;;;17.40;15.55;;;28.20;96.10;;;;;;5010672;28;20053;-59
2021/06/08 10:04:48;;;;;;;17.92;14.63;;;28.30;94.90;;;;;;5010696;28;20050;-60
2021/06/08 10:07:29;;;;;;;17.98;16.02;;;28.50;95.20;;;;;;5010511;28;20045;-60
2021/06/08 10:10:13;;;;;;;18.98;15.32;;;28.60;94.50;;;;;;5010522;28;20533;-60
2021/06/08 10:12:58;;;;;;;17.63;13.65;;;28.60;93.80;;;;;;5010643;28;20673;-60
2021/06/08 10:15:29;;;;;;;20.15;15.18;;;29.20;92.00;;;;;;5034545;28;20044;-60
2021/06/08 10:17:59;;;;;;;17.27;14.40;;;29.20;91.60;;;;;;5072129;28;20110;-59
2021/06/08 10:20:30;;;;;;;16.23;14.13;;;29.50;91.80;;;;;;5071671;28;20044;-60
2021/06/08 10:22:57;;;;;;;20.95;15.00;;;29.70;91.80;;;;;;5072060;28;20067;-59
2021/06/08 10:25:23;;;;;;;16.70;13.77;;;29.20;90.90;;;;;;5072213;28;20079;-60
2021/06/08 10:27:49;;;;;;;16.60;13.15;;;29.40;91.00;;;;;;5072144;28;20076;-59
2021/06/08 10:30:16;;;;;;;14.40;12.50;;;29.90;90.30;;;;;;5072047;28;20433;-60
2021/06/08 10:32:44;;;;;;;15.48;13.80;;;30.10;90.70;;;;;;5071887;28;20486;-60
2021/06/08 10:35:11;;;;;;;17.40;12.95;;;29.80;89.30;;;;;;5071925;28;20047;-59
2021/06/08 10:37:37;;;;;;;16.00;12.33;;;30.10;89.20;;;;;;5071851;28;20131;-60
2021/06/08 10:40:06;;;;;;;14.82;12.32;;;30.00;90.00;;;;;;5071610;28;20040;-60
2021/06/08 10:42:32;;;;;;;8.52;7.05;;;29.70;90.40;;;;;;5071903;28;20044;-60
2021/06/08 10:45:07;;;;;;;6.45;5.20;;;29.30;89.00;;;;;;5071818;28;20098;-60
2021/06/08 10:47:38;;;;;;;9.65;7.53;;;28.90;87.60;;;;;;5071713;28;20040;-60
2021/06/08 10:50:22;;;;;;;12.48;9.35;;;29.20;89.10;;;;;;5071846;28;20056;-60
2021/06/08 10:52:48;;;;;;;13.02;10.25;;;29.20;87.60;;;;;;5071426;28;20041;-60
2021/06/08 10:55:15;;;;;;;10.10;8.85;;;28.80;85.30;;;;;;5071712;28;20066;-59
2021/06/08 10:57:46;;;;;;;10.00;8.95;;;29.10;85.10;;;;;;5071497;28;20143;-60
2021/06/08 11:00:32;;;;;;;11.02;9.88;;;29.80;86.50;;;;;;5071511;28;20101;-60
2021/06/08 11:03:02;;;;;;;14.77;9.65;;;29.70;83.80;;;;;;4990130;28;20046;-60
2021/06/08 11:05:55;;;;;;;10.68;9.38;;;29.60;86.60;;;;;;4986805;28;20462;-60
2021/06/08 11:09:00;;;;;;;10.25;9.10;;;29.70;87.10;;;;;;4970609;28;20046;-60
2021/06/08 11:11:54;;;;;;;9.98;8.43;;;29.40;88.80;;;;;;4967313;28;20117;-60
2021/06/08 11:14:58;;;;;;;10.50;9.35;;;29.10;89.20;;;;;;4970566;28;20057;-60
2021/06/08 11:17:40;;;;;;;10.10;9.10;;;29.00;86.30;;;;;;4970652;28;20078;-60
2021/06/08 11:20:12;;;;;;;11.93;9.57;;;29.40;88.40;;;;;;4970530;28;20123;-60
2021/06/08 11:22:51;;;;;;;8.57;7.68;;;29.40;83.90;;;;;;4970573;28;20461;-60
2021/06/08 11:25:31;;;;;;;8.80;7.93;;;29.60;86.30;;;;;;4970575;28;20130;-60
2021/06/08 11:28:04;;;;;;;8.85;7.95;;;29.10;83.80;;;;;;4970283;28;20448;-61
2021/06/08 11:30:35;;;;;;;9.15;7.43;;;28.90;86.70;;;;;;4986983;28;20477;-61
2021/06/08 11:33:04;;;;;;;7.78;6.78;;;29.30;84.90;;;;;;4993815;28;20123;-60
2021/06/08 11:35:34;;;;;;;8.77;7.88;;;29.80;85.10;;;;;;4993711;28;20046;-60
2021/06/08 11:38:07;;;;;;;8.57;7.47;;;29.30;83.40;;;;;;4993748;28;20070;-60
2021/06/08 11:40:39;;;;;;;7.30;6.38;;;29.10;82.70;;;;;;5045517;28;20063;-60
2021/06/08 11:43:10;;;;;;;5.97;5.47;;;29.20;83.30;;;;;;5075054;28;20090;-60
2021/06/08 11:45:40;;;;;;;6.88;5.82;;;29.20;86.10;;;;;;5074943;28;20494;-60
2021/06/08 11:48:31;;;;;;;8.45;5.57;;;29.10;86.20;;;;;;5075007;28;20041;-60
2021/06/08 11:50:58;;;;;;;7.18;6.43;;;29.40;80.60;;;;;;5075093;28;20051;-60
2021/06/08 11:53:25;;;;;;;6.50;5.60;;;29.40;84.00;;;;;;5074955;28;20059;-60
2021/06/08 11:56:12;;;;;;;9.40;6.80;;;29.60;84.20;;;;;;5074843;28;20536;-60
2021/06/08 11:58:39;;;;;;;7.45;4.95;;;29.20;79.60;;;;;;5074767;28;20581;-60
2021/06/08 12:01:07;;;;;;;5.43;4.93;;;29.40;82.20;;;;;;5074618;28;20486;-60
2021/06/08 12:03:37;;;;;;;6.47;5.30;;;29.10;84.10;;;;;;5075171;28;20290;-60
2021/06/08 12:06:06;;;;;;;5.53;4.97;;;29.00;83.30;;;;;;5082739;28;20044;-60
2021/06/08 12:08:35;;;;;;;5.43;4.93;;;29.00;84.70;;;;;;5094946;28;20393;-60
2021/06/08 12:11:17;;;;;;;8.15;6.80;;;29.10;82.10;;;;;;5094976;28;20047;-60
2021/06/08 12:13:44;;;;;;;4.93;4.13;;;29.00;79.60;;;;;;5095350;28;20059;-60
2021/06/08 12:16:14;;;;;;;5.85;5.22;;;29.00;84.80;;;;;;5095157;28;20465;-60
2021/06/08 12:18:40;;;;;;;5.32;4.82;;;28.70;81.90;;;;;;5076750;28;20044;-60
2021/06/08 12:21:14;;;;;;;5.30;4.80;;;28.80;82.90;;;;;;5094730;28;20402;-60
2021/06/08 12:23:41;;;;;;;4.65;3.78;;;28.50;81.60;;;;;;5094699;28;20367;-60
2021/06/08 12:26:18;;;;;;;5.90;5.25;;;28.50;84.50;;;;;;5094447;28;20127;-60
2021/06/08 12:29:07;;;;;;;4.95;4.20;;;28.30;81.80;;;;;;5094601;28;20040;-61
2021/06/08 12:31:35;;;;;;;4.07;3.47;;;28.20;81.10;;;;;;5094613;28;20066;-60
2021/06/08 12:34:09;;;;;;;4.97;4.05;;;28.20;82.00;;;;;;5094614;28;20099;-60
2021/06/08 12:36:39;;;;;;;5.45;4.15;;;28.20;83.30;;;;;;5094571;28;20174;-60
2021/06/08 12:39:14;;;;;;;4.85;4.28;;;28.10;82.90;;;;;;5094321;28;20036;-60
2021/06/08 12:41:41;;;;;;;5.50;3.15;;;27.70;82.80;;;;;;5094151;28;20048;-60
2021/06/08 12:44:07;;;;;;;4.00;3.25;;;27.70;85.10;;;;;;5094150;28;20493;-61
2021/06/08 12:46:40;;;;;;;7.18;3.38;;;27.80;85.40;;;;;;5094140;28;20127;-60
2021/06/08 12:49:10;;;;;;;6.80;3.63;;;27.80;83.80;;;;;;5094416;28;20070;-60
2021/06/08 12:51:42;;;;;;;4.57;2.95;;;27.60;83.00;;;;;;5093186;28;20440;-60
2021/06/08 12:54:10;;;;;;;3.15;2.85;;;27.80;82.80;;;;;;5094353;28;20044;-60